Time;durP1;ratioP1;P1;durP2;ratioP2;P2;SDS_P1;SDS_P2;PMS_P1;PMS_P2;Temp;Humidity;BMP_temperature;BMP_pressure;BME280_temperature;BME280_humidity;BME280_pressure;Samples;Min_cycle;Max_cycle;Signal;HPM_P1;HPM_P2
2021/10/25 00:02:09;;;;;;;3.97;2.50;;;;;;;17.23;63.91;101876.31;4899609;29;20059;-87
2021/10/25 00:04:35;;;;;;;3.13;2.60;;;;;;;17.23;63.72;101876.31;4885030;29;20116;-88
2021/10/25 00:07:01;;;;;;;4.43;2.88;;;;;;;17.25;63.72;101871.13;4870711;29;20495;-87
2021/10/25 00:09:27;;;;;;;3.38;2.58;;;;;;;17.23;63.72;101865.91;4883231;29;20049;-88
2021/10/25 00:11:54;;;;;;;4.13;2.47;;;;;;;17.20;63.69;101860.69;4883677;29;20490;-88
2021/10/25 00:14:20;;;;;;;3.60;2.70;;;;;;;17.20;63.60;101862.38;4869160;29;20365;-87
2021/10/25 00:16:45;;;;;;;3.50;2.70;;;;;;;17.22;63.71;101865.88;4900877;29;20069;-88
2021/10/25 00:19:12;;;;;;;3.15;2.40;;;;;;;17.21;63.74;101861.56;4882751;29;20068;-88
2021/10/25 00:21:37;;;;;;;3.25;2.60;;;;;;;17.21;63.69;101861.56;4882554;29;20025;-88
2021/10/25 00:24:03;;;;;;;3.13;2.60;;;;;;;17.21;63.45;101861.56;4882692;29;20031;-88
2021/10/25 00:26:30;;;;;;;3.97;2.70;;;;;;;17.20;63.46;101858.09;4898012;29;20533;-88
2021/10/25 00:28:55;;;;;;;4.10;2.80;;;;;;;17.21;63.40;101856.34;4882303;29;20092;-87
2021/10/25 00:31:21;;;;;;;2.97;2.45;;;;;;;17.21;63.38;101854.59;4866573;29;20032;-87
2021/10/25 00:33:47;;;;;;;2.92;2.25;;;;;;;17.21;63.36;101856.34;4882290;29;20033;-87
2021/10/25 00:36:13;;;;;;;4.07;2.60;;;;;;;17.21;63.45;101853.75;4867120;29;20063;-86
2021/10/25 00:38:39;;;;;;;4.82;2.55;;;;;;;17.21;63.50;101841.59;4866392;29;20056;-83
2021/10/25 00:41:04;;;;;;;3.65;2.58;;;;;;;17.22;63.36;101839.88;4881870;29;20081;-82
2021/10/25 00:43:30;;;;;;;3.75;2.47;;;;;;;17.20;63.39;101833.78;4896985;29;20028;-82
2021/10/25 00:45:56;;;;;;;3.00;2.47;;;;;;;17.19;63.50;101832.06;4881486;29;20041;-83
2021/10/25 00:48:21;;;;;;;3.35;2.42;;;;;;;17.22;63.49;101829.47;4881592;29;20032;-81
2021/10/25 00:50:47;;;;;;;3.33;2.80;;;;;;;17.21;63.61;101825.13;4896866;29;20037;-83
2021/10/25 00:53:13;;;;;;;3.17;2.63;;;;;;;17.22;63.31;101824.25;4881500;29;20485;-83
2021/10/25 00:55:40;;;;;;;3.75;2.67;;;;;;;17.21;63.40;101828.59;4881437;29;20084;-83
2021/10/25 00:58:07;;;;;;;2.83;2.10;;;;;;;17.22;63.52;101826.84;4881463;29;20456;-83
2021/10/25 01:00:33;;;;;;;2.78;2.30;;;;;;;17.21;63.38;101822.53;4881759;29;20024;-83
2021/10/25 01:03:00;;;;;;;3.72;2.47;;;;;;;17.22;63.65;101819.06;4850740;29;20059;-83
2021/10/25 01:05:26;;;;;;;3.35;2.30;;;;;;;17.21;63.48;101826.00;4881123;29;20386;-83
2021/10/25 01:07:54;;;;;;;3.70;2.63;;;;;;;17.22;63.28;101834.66;4881345;29;20544;-83
2021/10/25 01:10:20;;;;;;;3.58;2.58;;;;;;;17.22;63.35;101829.47;4865798;29;20067;-83
2021/10/25 01:12:46;;;;;;;3.33;2.40;;;;;;;17.24;63.39;101822.53;4865934;29;20131;-83
2021/10/25 01:15:11;;;;;;;3.25;2.33;;;;;;;17.22;63.34;101825.16;4850511;29;20029;-83
2021/10/25 01:17:36;;;;;;;3.13;2.20;;;;;;;17.22;63.60;101819.94;4883079;29;20136;-83
2021/10/25 01:20:04;;;;;;;4.35;2.38;;;;;;;17.21;63.28;101813.00;4884973;29;20028;-82
2021/10/25 01:22:30;;;;;;;3.78;2.45;;;;;;;17.23;63.30;101824.28;4901708;29;20033;-81
2021/10/25 01:24:55;;;;;;;3.85;2.47;;;;;;;17.22;63.25;101824.25;4885202;29;20071;-80
2021/10/25 01:27:22;;;;;;;2.60;2.30;;;;;;;17.21;63.48;101819.94;4901651;29;20031;-83
2021/10/25 01:29:48;;;;;;;3.35;2.70;;;;;;;17.21;63.25;101815.59;4884951;29;20497;-78
2021/10/25 01:32:14;;;;;;;4.25;2.40;;;;;;;17.21;63.25;101814.72;4884763;29;20028;-83
2021/10/25 01:34:40;;;;;;;3.47;2.45;;;;;;;17.20;63.36;101810.38;4869144;29;20029;-83
2021/10/25 01:37:07;;;;;;;3.05;2.38;;;;;;;17.21;63.32;101806.94;4853880;29;20028;-84
2021/10/25 01:39:36;;;;;;;3.08;2.45;;;;;;;17.21;63.10;101807.78;4869590;29;20037;-83
2021/10/25 01:42:03;;;;;;;3.80;2.40;;;;;;;17.22;63.29;101813.84;4869540;29;20513;-83
2021/10/25 01:44:28;;;;;;;3.35;2.50;;;;;;;17.21;63.42;101806.94;4884437;29;20032;-82
2021/10/25 01:46:54;;;;;;;3.70;2.53;;;;;;;17.22;63.40;101808.66;4901465;29;20359;-83
2021/10/25 01:49:19;;;;;;;4.43;2.35;;;;;;;17.21;63.33;101802.59;4853711;29;20119;-85
2021/10/25 01:51:45;;;;;;;3.60;2.50;;;;;;;17.20;63.20;101811.25;4868788;29;20505;-82
2021/10/25 01:54:11;;;;;;;5.05;2.13;;;;;;;17.21;63.16;101814.72;4884676;29;20060;-82
2021/10/25 01:56:37;;;;;;;3.50;2.50;;;;;;;17.20;63.15;101808.66;4884461;29;20036;-83
2021/10/25 01:59:10;;;;;;;3.45;2.30;;;;;;;17.22;63.16;101811.25;4884546;29;20036;-83
2021/10/25 02:01:38;;;;;;;3.55;2.30;;;;;;;17.20;63.36;101815.56;4884257;29;20029;-84
2021/10/25 02:04:07;;;;;;;2.92;2.30;;;;;;;17.20;62.97;101810.38;4869052;29;20083;-83
2021/10/25 02:06:33;;;;;;;3.22;2.38;;;;;;;17.20;63.38;101816.47;4884244;29;20080;-84
2021/10/25 02:08:58;;;;;;;3.08;2.30;;;;;;;17.21;63.24;101807.78;4884046;29;20116;-84
2021/10/25 02:11:24;;;;;;;2.67;2.30;;;;;;;17.20;63.12;101799.97;4868472;29;20426;-83
2021/10/25 02:13:50;;;;;;;3.00;2.13;;;;;;;17.19;63.18;101806.91;4868996;29;20047;-81
2021/10/25 02:16:16;;;;;;;3.30;2.40;;;;;;;17.21;63.01;101797.38;4900693;29;20032;-83
2021/10/25 02:18:42;;;;;;;3.58;2.20;;;;;;;17.20;63.13;101794.75;4853198;29;20036;-82
2021/10/25 02:21:11;;;;;;;2.75;2.10;;;;;;;17.19;63.34;101793.91;4884169;29;20075;-83
2021/10/25 02:23:40;;;;;;;3.10;2.13;;;;;;;17.20;63.11;101795.66;4883881;29;20040;-84
2021/10/25 02:26:06;;;;;;;3.30;2.40;;;;;;;17.20;62.93;101793.06;4884209;29;20084;-82
2021/10/25 02:28:33;;;;;;;4.25;2.50;;;;;;;17.20;63.11;101785.25;4883170;29;20397;-83
2021/10/25 02:30:59;;;;;;;3.60;2.30;;;;;;;17.19;62.99;101783.50;4899330;29;20032;-82
2021/10/25 02:33:24;;;;;;;2.70;2.20;;;;;;;17.20;63.05;101782.66;4900805;29;20029;-83
2021/10/25 02:35:50;;;;;;;2.33;1.88;;;;;;;17.20;63.08;101777.44;4868048;29;20115;-81
2021/10/25 02:38:17;;;;;;;3.22;2.35;;;;;;;17.20;62.95;101777.44;4883654;29;20040;-84
2021/10/25 02:40:43;;;;;;;2.42;2.10;;;;;;;17.20;63.05;101779.16;4899169;29;20438;-82
2021/10/25 02:43:08;;;;;;;2.35;2.15;;;;;;;17.20;63.00;101779.16;4868178;29;20039;-82
2021/10/25 02:45:34;;;;;;;3.45;2.10;;;;;;;17.20;63.04;101779.16;4883590;29;20107;-82
2021/10/25 02:48:01;;;;;;;3.15;2.10;;;;;;;17.21;63.11;101780.91;4867907;29;20037;-84
2021/10/25 02:50:26;;;;;;;3.22;2.20;;;;;;;17.21;63.01;101783.50;4867972;29;20124;-82
2021/10/25 02:52:52;;;;;;;3.20;2.25;;;;;;;17.21;63.09;101779.19;4883338;29;20111;-82
2021/10/25 02:55:17;;;;;;;3.42;2.33;;;;;;;17.20;63.01;101787.84;4883286;29;20036;-81
2021/10/25 02:57:43;;;;;;;3.50;2.15;;;;;;;17.22;63.11;101787.84;4867640;29;20486;-81
2021/10/25 03:00:13;;;;;;;3.10;2.40;;;;;;;17.20;63.06;101792.16;4884043;29;20036;-82
2021/10/25 03:02:38;;;;;;;3.13;2.13;;;;;;;17.20;62.83;101779.16;4883198;29;20033;-83
2021/10/25 03:05:05;;;;;;;2.70;2.30;;;;;;;17.20;62.93;101773.94;4898702;29;20092;-83
2021/10/25 03:07:31;;;;;;;2.70;2.15;;;;;;;17.20;63.02;101768.75;4867792;29;20032;-82
2021/10/25 03:09:57;;;;;;;2.70;2.00;;;;;;;17.20;63.01;101766.16;4867516;29;20057;-82
2021/10/25 03:12:23;;;;;;;4.28;2.00;;;;;;;17.19;62.97;101760.09;4883000;29;20029;-83
2021/10/25 03:14:48;;;;;;;2.83;2.30;;;;;;;17.18;63.15;101749.66;4883182;29;20028;-84
2021/10/25 03:17:14;;;;;;;4.32;2.33;;;;;;;17.19;63.02;101756.63;4867748;29;20063;-83
2021/10/25 03:19:41;;;;;;;2.63;2.17;;;;;;;17.18;62.98;101760.97;4882966;29;20427;-83
2021/10/25 03:22:06;;;;;;;2.78;2.20;;;;;;;17.19;63.06;101765.28;4867537;29;20029;-84
2021/10/25 03:24:36;;;;;;;2.90;2.20;;;;;;;17.20;62.79;101768.75;4899618;29;20091;-82
2021/10/25 03:27:05;;;;;;;3.00;2.00;;;;;;;17.18;63.14;101762.66;4899824;29;20029;-83
2021/10/25 03:29:31;;;;;;;3.05;2.10;;;;;;;17.19;62.95;101754.03;4867463;29;20040;-83
2021/10/25 03:31:58;;;;;;;2.70;2.15;;;;;;;17.19;62.83;101754.03;4882823;29;20386;-84
2021/10/25 03:34:25;;;;;;;2.20;1.80;;;;;;;17.19;63.07;101761.81;4867445;29;20072;-84
2021/10/25 03:36:51;;;;;;;2.60;1.90;;;;;;;17.20;62.94;101760.94;4851920;29;20048;-83
2021/10/25 03:39:22;;;;;;;2.50;2.08;;;;;;;17.19;63.00;101761.81;4881963;29;20029;-84
2021/10/25 03:41:49;;;;;;;3.05;2.25;;;;;;;17.20;62.88;101760.94;4867952;29;20029;-84
2021/10/25 03:44:23;;;;;;;2.60;1.92;;;;;;;17.20;63.04;101755.75;4852156;29;20043;-84
2021/10/25 03:49:22;;;;;;;2.75;2.10;;;;;;;17.18;62.94;101758.34;4899723;29;20024;-84
2021/10/25 03:51:48;;;;;;;3.33;2.42;;;;;;;17.18;62.92;101754.88;4882870;29;20495;-84
2021/10/25 03:59:46;;;;;;;2.30;2.00;;;;;;;17.19;63.10;101761.81;4899141;29;20025;-84
2021/10/25 04:29:03;;;;;;;3.58;2.13;;;;;;;17.17;62.84;101741.00;4883320;29;19915;-84
2021/10/25 04:31:28;;;;;;;3.15;2.30;;;;;;;17.18;62.84;101744.47;4866553;29;20482;-83
2021/10/25 04:33:54;;;;;;;2.97;2.20;;;;;;;17.16;63.17;101747.06;4852266;29;20033;-89
2021/10/25 04:36:22;;;;;;;2.75;1.90;;;;;;;17.17;62.74;101750.53;4883119;29;20390;-89
2021/10/25 04:38:51;;;;;;;2.80;2.20;;;;;;;17.18;62.80;101750.56;4866563;29;20036;-89
2021/10/25 04:41:16;;;;;;;2.30;1.80;;;;;;;17.18;62.80;101736.66;4866413;29;20473;-87
2021/10/25 04:43:44;;;;;;;2.55;1.90;;;;;;;17.19;62.82;101741.88;4897652;29;20115;-88
2021/10/25 04:46:09;;;;;;;5.13;2.03;;;;;;;17.18;62.96;101742.75;4852138;29;20033;-89
2021/10/25 04:48:35;;;;;;;2.30;1.90;;;;;;;17.19;62.83;101741.00;4882666;29;20418;-89
2021/10/25 04:51:01;;;;;;;3.05;2.10;;;;;;;17.18;62.68;101740.16;4866652;29;20055;-88
2021/10/25 04:53:26;;;;;;;2.50;2.08;;;;;;;17.18;62.80;101737.56;4882339;29;20029;-89
2021/10/25 04:55:51;;;;;;;2.58;2.17;;;;;;;17.19;62.66;101743.63;4866234;29;20043;-86
2021/10/25 04:58:17;;;;;;;3.03;2.03;;;;;;;17.18;62.79;101742.75;4850691;29;20127;-83
2021/10/25 05:00:42;;;;;;;3.45;1.90;;;;;;;17.18;62.81;101744.47;4881475;29;20035;-80
2021/10/25 05:03:07;;;;;;;3.00;2.03;;;;;;;17.19;62.69;101743.63;4881162;29;20397;-80
2021/10/25 05:05:33;;;;;;;3.75;1.90;;;;;;;17.18;62.75;101739.25;4850490;29;20040;-81
2021/10/25 05:07:59;;;;;;;4.13;2.13;;;;;;;17.18;62.68;101739.25;4865753;29;20498;-79
2021/10/25 05:10:24;;;;;;;3.05;2.30;;;;;;;17.18;62.94;101737.56;4881694;29;20052;-90
2021/10/25 05:12:50;;;;;;;2.60;2.10;;;;;;;17.17;62.90;101725.38;4883717;29;20025;-90
2021/10/25 05:15:16;;;;;;;3.38;2.20;;;;;;;17.17;63.14;101722.78;4882469;29;20541;-92
2021/10/25 05:17:47;;;;;;;4.50;2.47;;;;;;;17.17;63.00;101716.72;4882195;29;20086;-82
2021/10/25 05:20:15;;;;;;;2.88;2.33;;;;;;;17.19;62.89;101730.59;4881578;29;20031;-91
2021/10/25 05:22:40;;;;;;;4.13;2.58;;;;;;;17.18;63.06;101734.06;4865750;29;20040;-86
2021/10/25 05:25:06;;;;;;;7.50;2.70;;;;;;;17.19;63.10;101730.59;4897029;29;20060;-78
2021/10/25 05:27:32;;;;;;;5.22;2.60;;;;;;;17.17;63.03;101730.59;4865959;29;20036;-87
2021/10/25 05:29:57;;;;;;;6.15;2.60;;;;;;;17.19;63.06;101728.88;4881349;29;20033;-83
2021/10/25 05:32:23;;;;;;;5.40;2.70;;;;;;;17.19;63.20;101728.88;4850962;29;20095;-91
2021/10/25 05:34:49;;;;;;;7.90;3.88;;;;;;;17.19;63.19;101722.81;4882079;29;20029;-90
2021/10/25 05:37:14;;;;;;;7.78;3.70;;;;;;;17.19;63.02;101720.22;4850253;29;20212;-85
2021/10/25 05:39:40;;;;;;;6.38;3.58;;;;;;;17.21;63.18;101721.94;4865365;29;20028;-78
2021/10/25 05:42:08;;;;;;;9.73;3.60;;;;;;;17.24;63.39;101726.28;4897703;29;20027;-80
2021/10/25 05:44:34;;;;;;;7.55;3.53;;;;;;;17.20;63.44;101720.22;4881222;29;20032;-81
2021/10/25 05:47:00;;;;;;;6.20;3.33;;;;;;;17.20;63.49;101716.72;4865751;29;20040;-80
2021/10/25 05:49:26;;;;;;;6.85;3.42;;;;;;;17.18;63.46;101719.34;4896669;29;20032;-79
2021/10/25 05:51:51;;;;;;;6.32;2.88;;;;;;;17.18;63.48;101718.44;4880911;29;20108;-83
2021/10/25 05:54:16;;;;;;;5.20;3.40;;;;;;;17.16;63.49;101709.75;4896363;29;20036;-79
2021/10/25 05:56:43;;;;;;;8.13;3.30;;;;;;;17.16;63.29;101718.47;4865476;29;20116;-81
2021/10/25 05:59:08;;;;;;;6.05;3.38;;;;;;;17.17;63.39;101722.78;4880981;29;20032;-80
2021/10/25 06:01:46;;;;;;;5.95;3.30;;;;;;;17.18;63.48;101718.44;4865478;29;20024;-83
2021/10/25 06:04:13;;;;;;;4.32;3.15;;;;;;;17.19;63.25;101717.59;4869543;29;20039;-86
2021/10/25 06:06:39;;;;;;;6.90;3.38;;;;;;;17.24;62.98;101708.94;4869665;29;20029;-84
2021/10/25 06:09:05;;;;;;;7.03;3.30;;;;;;;17.28;63.05;101715.91;4868583;29;20052;-84
2021/10/25 06:11:33;;;;;;;7.88;3.47;;;;;;;17.32;63.29;101716.81;4868989;29;20029;-88
2021/10/25 06:14:05;;;;;;;7.28;3.38;;;;;;;17.34;63.29;101715.09;4869194;29;20039;-87
2021/10/25 06:16:42;;;;;;;6.10;3.65;;;;;;;17.35;63.20;101715.94;4869765;29;20111;-85
2021/10/25 06:19:11;;;;;;;6.53;3.35;;;;;;;17.36;63.03;101718.56;4886044;29;20088;-90
2021/10/25 06:21:37;;;;;;;5.13;3.08;;;;;;;17.36;63.05;101709.91;4884985;29;20020;-86
2021/10/25 06:24:03;;;;;;;5.60;3.30;;;;;;;17.36;63.33;101707.31;4900954;29;20108;-91
2021/10/25 06:26:29;;;;;;;4.47;3.15;;;;;;;17.37;63.10;101709.88;4869059;29;20063;-88
2021/10/25 06:28:55;;;;;;;5.10;3.40;;;;;;;17.36;63.00;101704.69;4901043;29;20028;-89
2021/10/25 06:31:21;;;;;;;6.28;3.30;;;;;;;17.37;63.20;101714.22;4853573;29;20052;-88
2021/10/25 06:33:47;;;;;;;5.88;3.47;;;;;;;17.36;62.86;101718.56;4885400;29;20060;-89
2021/10/25 06:36:14;;;;;;;4.75;3.08;;;;;;;17.37;63.08;101709.88;4885509;29;20095;-89
2021/10/25 06:39:09;;;;;;;8.10;3.42;;;;;;;17.37;63.20;101719.44;4899921;29;20079;-89
2021/10/25 06:41:28;;;;;;;6.57;2.97;;;;;;;17.37;62.96;101719.44;4899989;29;20337;-90
2021/10/25 06:44:01;;;;;;;6.82;3.78;;;;;;;17.38;63.11;101721.19;4884085;29;20025;-90
2021/10/25 06:46:26;;;;;;;5.38;3.38;;;;;;;17.39;63.03;101718.56;4884865;29;20036;-91
2021/10/25 06:48:52;;;;;;;5.72;3.45;;;;;;;17.37;63.08;101720.28;4884111;29;20029;-89
2021/10/25 06:51:18;;;;;;;4.90;2.90;;;;;;;17.38;63.05;101722.06;4853313;29;20047;-90
2021/10/25 06:53:44;;;;;;;5.57;3.40;;;;;;;17.38;63.11;101713.38;4884300;29;20025;-90
2021/10/25 06:56:09;;;;;;;4.45;3.10;;;;;;;17.38;63.02;101729.00;4853373;29;20084;-90
2021/10/25 06:58:35;;;;;;;4.88;2.97;;;;;;;17.37;63.01;101720.28;4853078;29;20032;-90
2021/10/25 07:01:01;;;;;;;5.38;3.28;;;;;;;17.38;63.07;101723.78;4884018;29;20032;-91
2021/10/25 07:03:27;;;;;;;5.25;3.28;;;;;;;17.40;63.05;101729.88;4884086;29;20450;-91
2021/10/25 07:05:53;;;;;;;4.82;3.15;;;;;;;17.39;62.93;101731.59;4868861;29;20032;-91
2021/10/25 07:08:18;;;;;;;4.55;3.00;;;;;;;17.39;63.00;101734.19;4868310;29;20029;-91
2021/10/25 07:10:44;;;;;;;4.68;3.08;;;;;;;17.39;62.91;101738.53;4868347;29;20033;-91
2021/10/25 07:13:10;;;;;;;5.93;3.10;;;;;;;17.39;62.67;101739.38;4899405;29;20516;-90
2021/10/25 07:15:43;;;;;;;5.65;3.38;;;;;;;17.39;62.82;101734.19;4883594;29;20020;-90
2021/10/25 07:18:15;;;;;;;;;;;;;;;17.40;62.81;101735.94;4885498;29;20036;-90
2021/10/25 08:11:52;;;;;;;4.78;2.88;;;;;;;17.41;62.76;101770.63;4882724;29;20028;-90
2021/10/25 08:14:18;;;;;;;3.70;2.75;;;;;;;17.42;62.62;101775.84;4883637;29;20394;-91
2021/10/25 08:16:48;;;;;;;3.60;2.58;;;;;;;17.42;62.54;101773.25;4867257;29;20095;-90
2021/10/25 08:19:25;;;;;;;4.07;2.65;;;;;;;17.41;62.54;101766.28;4883256;29;20036;-88
2021/10/25 08:21:55;;;;;;;3.22;2.55;;;;;;;17.42;62.68;101775.84;4883906;29;20044;-90
2021/10/25 08:24:22;;;;;;;3.28;2.60;;;;;;;17.42;62.19;101774.97;4882788;29;20024;-89
2021/10/25 08:26:49;;;;;;;3.63;2.63;;;;;;;17.42;62.30;101768.06;4897783;29;20115;-89
2021/10/25 08:29:18;;;;;;;4.30;2.83;;;;;;;17.41;62.43;101771.50;4867585;29;20032;-90
2021/10/25 08:31:49;;;;;;;4.22;2.95;;;;;;;17.42;62.23;101774.97;4867275;29;20499;-88
2021/10/25 08:39:48;;;;;;;4.30;2.67;;;;;;;17.44;62.16;101775.84;4884617;29;20056;-89
2021/10/25 08:42:18;;;;;;;3.33;2.50;;;;;;;17.44;62.33;101775.84;4882655;29;20052;-90
2021/10/25 08:44:46;;;;;;;3.53;2.58;;;;;;;17.43;62.41;101788.00;4882408;29;20496;-90
2021/10/25 08:47:16;;;;;;;3.05;2.63;;;;;;;17.43;62.32;101784.53;4882322;29;20051;-90
2021/10/25 08:49:42;;;;;;;4.15;2.47;;;;;;;17.43;62.32;101777.56;4867296;29;20038;-89
2021/10/25 08:52:07;;;;;;;3.70;2.50;;;;;;;17.42;62.36;101775.84;4882340;29;20648;-91
2021/10/25 08:54:32;;;;;;;3.42;2.78;;;;;;;17.43;62.04;101779.31;4882467;29;20039;-90
2021/10/25 08:57:00;;;;;;;2.92;2.63;;;;;;;17.42;62.35;101781.06;4851402;29;20101;-90
2021/10/25 08:59:26;;;;;;;3.90;2.80;;;;;;;17.43;62.26;101781.91;4898992;29;20417;-90
2021/10/25 09:02:02;;;;;;;3.20;2.53;;;;;;;17.43;62.32;101782.78;4882420;29;20112;-89
2021/10/25 09:04:27;;;;;;;4.22;2.78;;;;;;;17.44;62.37;101774.13;4882268;29;20120;-90
2021/10/25 09:06:55;;;;;;;4.18;2.83;;;;;;;17.45;62.20;101778.47;4851499;29;20456;-90
2021/10/25 09:09:21;;;;;;;3.85;2.70;;;;;;;17.48;62.13;101777.59;4867795;29;20061;-90
2021/10/25 09:11:57;;;;;;;4.68;3.00;;;;;;;17.48;62.26;101773.28;4898478;29;20028;-89
2021/10/25 09:14:23;;;;;;;3.70;2.50;;;;;;;17.48;62.19;101778.50;4882133;29;20025;-89
2021/10/25 09:16:55;;;;;;;4.03;2.70;;;;;;;17.48;62.17;101773.28;4897819;29;20128;-90
2021/10/25 09:19:21;;;;;;;3.50;2.70;;;;;;;17.49;62.00;101768.94;4897639;29;20389;-90
2021/10/25 09:21:46;;;;;;;2.80;2.60;;;;;;;17.47;61.95;101768.94;4882849;29;20028;-90
2021/10/25 09:24:19;;;;;;;3.15;2.50;;;;;;;17.48;62.04;101769.78;4866789;29;20033;-90
2021/10/25 09:26:53;;;;;;;3.53;2.67;;;;;;;17.50;62.08;101768.06;4882380;29;20035;-90
2021/10/25 09:29:24;;;;;;;3.08;2.65;;;;;;;17.47;62.06;101761.13;4897808;29;20106;-89
2021/10/25 09:31:54;;;;;;;3.10;2.50;;;;;;;17.48;62.04;101760.28;4897646;29;20028;-89
2021/10/25 09:34:32;;;;;;;3.17;2.55;;;;;;;17.49;62.08;101758.53;4897420;29;20024;-90
2021/10/25 09:37:06;;;;;;;3.92;2.97;;;;;;;17.49;61.94;101755.94;4882242;29;20098;-90
2021/10/25 09:39:43;;;;;;;2.92;2.50;;;;;;;17.52;61.72;101761.16;4902020;29;20032;-89
2021/10/25 09:43:03;;;;;;;2.92;2.63;;;;;;;17.52;61.93;101755.94;4871844;29;20501;-90
2021/10/25 09:50:45;;;;;;;2.70;2.38;;;;;;;17.50;61.85;101760.28;4902639;29;20035;-90
2021/10/25 09:53:12;;;;;;;3.55;2.80;;;;;;;17.51;61.87;101756.81;4885446;29;20489;-91
2021/10/25 09:55:45;;;;;;;2.95;2.45;;;;;;;17.52;62.24;101755.94;4885629;29;20065;-91
2021/10/25 09:58:18;;;;;;;4.10;2.72;;;;;;;17.52;61.97;101758.53;4885753;29;20033;-90
2021/10/25 10:00:45;;;;;;;3.53;2.40;;;;;;;17.53;61.57;101751.59;4885439;29;20036;-90
2021/10/25 10:03:13;;;;;;;3.78;3.03;;;;;;;17.52;61.94;101758.53;4886142;29;20032;-89
2021/10/25 10:05:43;;;;;;;3.75;2.72;;;;;;;17.53;61.95;101752.50;4885615;29;20056;-90
2021/10/25 10:08:11;;;;;;;3.20;2.38;;;;;;;17.52;61.96;101755.94;4885509;29;20036;-90
2021/10/25 10:10:38;;;;;;;3.60;3.00;;;;;;;17.50;62.24;101752.47;4869631;29;20049;-89
2021/10/25 10:13:05;;;;;;;2.63;2.30;;;;;;;17.50;62.03;101752.47;4885246;29;20028;-89
2021/10/25 10:15:33;;;;;;;2.80;2.60;;;;;;;17.52;62.03;101752.47;4885338;29;20088;-90
2021/10/25 10:18:05;;;;;;;3.03;2.50;;;;;;;17.53;61.90;101751.59;4885399;29;20076;-89
2021/10/25 10:20:33;;;;;;;3.42;2.83;;;;;;;17.53;61.54;101746.41;4900582;29;20028;-88
2021/10/25 10:23:03;;;;;;;4.53;2.80;;;;;;;17.53;61.86;101749.00;4870079;29;20037;-90
2021/10/25 10:25:36;;;;;;;3.17;2.88;;;;;;;17.52;62.02;101742.94;4884928;29;20028;-88
2021/10/25 10:28:06;;;;;;;3.10;2.63;;;;;;;17.52;61.89;101744.69;4900360;29;20035;-90
2021/10/25 10:30:47;;;;;;;3.25;2.60;;;;;;;17.49;62.10;101740.31;4900121;29;20032;-90
2021/10/25 10:33:13;;;;;;;2.95;2.53;;;;;;;17.50;61.89;101741.19;4884547;29;20028;-89
2021/10/25 10:35:44;;;;;;;3.33;2.80;;;;;;;17.50;61.91;101747.25;4884569;29;20119;-90
2021/10/25 10:38:09;;;;;;;3.50;3.00;;;;;;;17.51;62.01;101749.00;4869816;29;20405;-89
2021/10/25 10:40:43;;;;;;;3.90;3.13;;;;;;;17.52;61.83;101742.94;4869102;29;20025;-89
2021/10/25 10:43:21;;;;;;;4.30;3.00;;;;;;;17.51;61.80;101742.91;4854405;29;20508;-89
2021/10/25 10:45:58;;;;;;;3.22;2.70;;;;;;;17.53;61.88;101749.00;4884976;29;20405;-90
2021/10/25 10:48:34;;;;;;;3.10;2.78;;;;;;;17.52;61.59;101744.69;4883902;29;20120;-89
2021/10/25 10:51:03;;;;;;;3.05;2.72;;;;;;;17.53;61.71;101742.09;4884864;29;20098;-90
2021/10/25 10:53:33;;;;;;;3.15;2.85;;;;;;;17.54;61.80;101746.41;4884970;29;20032;-89
2021/10/25 10:56:06;;;;;;;5.00;2.75;;;;;;;17.55;61.79;101744.69;4900821;29;20036;-89
2021/10/25 10:58:52;;;;;;;3.30;2.90;;;;;;;17.54;61.68;101742.94;4899799;29;20111;-87
2021/10/25 11:01:18;;;;;;;3.90;3.13;;;;;;;17.54;61.77;101748.16;4884179;29;20032;-86
2021/10/25 11:03:43;;;;;;;3.47;2.70;;;;;;;17.53;61.68;101751.59;4883765;29;20032;-86
2021/10/25 11:06:19;;;;;;;3.42;2.90;;;;;;;17.54;61.79;101753.34;4883638;29;20386;-86
2021/10/25 11:08:50;;;;;;;3.10;2.80;;;;;;;17.53;61.81;101749.91;4868774;29;20045;-87
2021/10/25 11:11:21;;;;;;;3.65;2.90;;;;;;;17.52;61.86;101748.13;4868632;29;20474;-86
2021/10/25 11:13:53;;;;;;;3.30;2.85;;;;;;;17.54;61.64;101751.63;4883441;29;20028;-86
2021/10/25 11:16:26;;;;;;;3.65;2.83;;;;;;;17.53;61.69;101747.28;4883426;29;20115;-86
2021/10/25 11:18:56;;;;;;;3.15;2.72;;;;;;;17.54;61.76;101748.16;4883659;29;20037;-86
2021/10/25 11:21:32;;;;;;;3.70;3.08;;;;;;;17.53;61.85;101744.69;4883591;29;20569;-86
2021/10/25 11:24:06;;;;;;;4.45;3.13;;;;;;;17.54;61.92;101745.56;4900043;29;20020;-86
2021/10/25 11:26:36;;;;;;;3.40;2.85;;;;;;;17.54;61.57;101749.00;4883642;29;20034;-85
2021/10/25 11:29:15;;;;;;;4.05;3.03;;;;;;;17.55;61.58;101752.47;4883126;29;20037;-84
2021/10/25 11:31:47;;;;;;;3.60;2.80;;;;;;;17.55;62.08;101747.28;4883651;29;20040;-86
2021/10/25 11:34:20;;;;;;;4.05;3.10;;;;;;;17.54;62.10;101741.22;4883166;29;20064;-86
2021/10/25 11:37:04;;;;;;;4.03;3.15;;;;;;;17.55;61.70;101749.88;4900012;29;20029;-85
2021/10/25 11:39:44;;;;;;;4.22;2.65;;;;;;;17.55;61.71;101740.38;4883105;29;20033;-86
2021/10/25 11:42:18;;;;;;;3.83;3.17;;;;;;;17.57;61.78;101737.75;4883449;29;20032;-86
2021/10/25 11:44:46;;;;;;;4.18;3.10;;;;;;;17.57;61.67;101742.94;4883002;29;20037;-86
2021/10/25 11:47:28;;;;;;;4.20;3.33;;;;;;;17.57;61.53;101732.53;4899782;29;20029;-86
2021/10/25 11:49:59;;;;;;;3.42;2.85;;;;;;;17.56;61.55;101733.41;4899004;29;20028;-86
2021/10/25 11:52:27;;;;;;;4.13;3.35;;;;;;;17.56;61.82;101730.81;4882791;29;20025;-85
2021/10/25 11:54:55;;;;;;;3.55;2.97;;;;;;;17.54;61.83;101732.53;4852252;29;20493;-85
2021/10/25 11:57:21;;;;;;;3.80;3.38;;;;;;;17.53;61.82;101733.38;4882571;29;20036;-86
2021/10/25 11:59:56;;;;;;;3.50;3.15;;;;;;;17.54;61.73;101724.72;4882579;29;20031;-86
2021/10/25 12:02:22;;;;;;;3.70;3.40;;;;;;;17.55;61.73;101727.34;4881864;29;20024;-86
2021/10/25 12:04:48;;;;;;;4.90;3.42;;;;;;;17.57;61.54;101715.22;4882598;29;20039;-86
2021/10/25 12:07:14;;;;;;;4.53;3.65;;;;;;;17.60;61.70;101714.34;4882516;29;20032;-84
2021/10/25 12:09:40;;;;;;;3.72;3.10;;;;;;;17.59;61.62;101710.00;4882152;29;20215;-85
2021/10/25 12:12:13;;;;;;;4.00;3.30;;;;;;;17.61;61.46;101714.34;4866832;29;20127;-84
2021/10/25 12:14:39;;;;;;;4.00;3.53;;;;;;;17.65;61.25;101708.28;4867934;29;20511;-85
2021/10/25 12:17:06;;;;;;;4.20;3.33;;;;;;;17.68;61.38;101707.41;4866654;29;20037;-84
2021/10/25 12:19:31;;;;;;;4.50;3.47;;;;;;;17.69;61.30;101709.19;4867015;29;20064;-86
2021/10/25 12:22:08;;;;;;;4.13;3.42;;;;;;;17.69;61.25;101702.22;4882413;29;20055;-86
2021/10/25 12:24:39;;;;;;;3.85;3.30;;;;;;;17.66;61.47;101709.19;4882328;29;20028;-86
2021/10/25 12:27:06;;;;;;;3.75;3.30;;;;;;;17.68;61.30;101700.50;4898100;29;20169;-85
2021/10/25 12:29:32;;;;;;;3.78;3.38;;;;;;;17.76;60.87;101708.34;4866749;29;20040;-86
2021/10/25 12:32:08;;;;;;;4.25;3.47;;;;;;;17.73;61.25;101710.94;4897620;29;20438;-86
2021/10/25 12:34:54;;;;;;;4.25;3.58;;;;;;;17.71;61.03;101714.41;4882200;29;20052;-86
2021/10/25 12:37:27;;;;;;;4.80;3.65;;;;;;;17.68;61.17;101710.03;4881402;29;20044;-85
2021/10/25 12:39:54;;;;;;;;;;;;;;;17.66;61.33;101717.00;4899367;29;20024;-85
2021/10/25 12:42:20;;;;;;;4.47;3.40;;;;;;;17.63;61.56;101709.16;4899009;29;19979;-86
2021/10/25 12:44:50;;;;;;;4.28;3.70;;;;;;;17.60;61.50;101709.16;4881835;29;20481;-86
2021/10/25 12:47:19;;;;;;;4.22;3.47;;;;;;;17.59;61.54;101708.25;4882247;29;20358;-86
2021/10/25 12:49:47;;;;;;;4.13;3.50;;;;;;;17.59;61.75;101704.78;4881957;29;20116;-85
2021/10/25 12:52:14;;;;;;;4.20;3.65;;;;;;;17.59;61.58;101710.00;4881809;29;20086;-85
2021/10/25 12:54:41;;;;;;;4.18;3.70;;;;;;;17.57;61.61;101702.22;4882255;29;20036;-84
2021/10/25 12:57:15;;;;;;;4.43;3.50;;;;;;;17.57;61.77;101704.81;4882028;29;20099;-86
2021/10/25 12:59:41;;;;;;;4.07;3.63;;;;;;;17.58;61.66;101700.47;4881851;29;20033;-86
2021/10/25 13:02:09;;;;;;;4.15;3.72;;;;;;;17.57;61.47;101698.72;4881885;29;20027;-85
2021/10/25 13:04:36;;;;;;;3.90;3.50;;;;;;;17.58;61.78;101710.88;4866567;29;20132;-85
2021/10/25 13:07:15;;;;;;;4.05;3.67;;;;;;;17.60;61.69;101704.81;4881622;29;20024;-85
2021/10/25 13:09:48;;;;;;;4.97;3.65;;;;;;;17.62;61.53;101697.00;4898297;29;20375;-86